الصفحة الرئيسية
METAR-TAF:

METAR-TAF

مطار :

قاعدة بيروت الجوية

بيروت, لبنان

دائرة عرض: 33-49N, خط طول: 035-29E, ارتفاع: 29 متر

مراقبة الطقس الحالي

تاريخ ووقت الإصدار 14 دقيقة قبل الساعة 20:00UTC
ريح 5 عقدة من الجنوب/الجنوب الغربي
درجة الحرارة 27°درجة مئوية
الرطوبة 70%
ضغط 1010 hPa
الرؤية 10 كم أو أكثر
الغيوم لا تقل 1500 م ولا وجود لمزنة ركامية السحاب الأسود

METAR: OLBA 162000Z 21005KT CAVOK 27/21 Q1010 NOSIG

زمن: 23:14 (20:14 UTC)

توقعات

تاريخ ووقت الإصدار 4ساعات و 14 دقيقة قبل الساعة 16:00UTC
التوقعات صالحة من16 الساعة 18 UTC إلى 17 الساعة 24 UTC
ريح 10 عقدة من الجنوب الغربي
الرؤية: 8000 متر
غيوم متفرقة على ارتفاع 2600 قدم
أصبح
من 17 الساعة 03 UTC إلى 17 الساعة 06 UTC
ريح 15 عقدة من الجنوب/الجنوب الغربي
مؤقت
من 16 الساعة 18 UTC إلى 17 الساعة 06 UTC
الرؤية: 5000 متر
غشاء

TAF: OLBA 161600Z 1618/1724 23010KT 8000 SCT026 BECMG 1703/1706 21015KT TEMPO 1618/1706 5000 BR

أرصاد الطقس والتوقعات من أكثر من 4000 مطار (تقارير الطقس للمطار METAR والتنبؤ بالطقس بالمطارTAF).

المحطات المتاحة هي النقط الصفراء والحمراء على الخريطة.

حرك المؤشر فوق النقطة لمعرفة اسم المحطة.

ثم انقر لمعرفة أرصاد وتوقعات الطقس.

لتغيير الخارطة: اضغط على الأزرار الخضراء مع رمز الصليب الأسود للتكبير. على الزر الأخضر مع شرطة للتصغير، أو على الأسهم الخضراء للخرائط المجاورة.


METAR-TAF: